sensor_id;sensor_type;location;lat;lon;timestamp;P1;durP1;ratioP1;P2;durP2;ratioP2
49440;SDS011;35317;51.978;6.296;2022-10-31T00:04:34;23.73;;;12.98;;
49440;SDS011;35317;51.978;6.296;2022-10-31T00:09:34;19.77;;;12.07;;
49440;SDS011;35317;51.978;6.296;2022-10-31T00:14:35;28.15;;;14.30;;
49440;SDS011;35317;51.978;6.296;2022-10-31T00:19:36;25.33;;;14.35;;
49440;SDS011;35317;51.978;6.296;2022-10-31T00:24:37;31.42;;;15.77;;
49440;SDS011;35317;51.978;6.296;2022-10-31T00:29:37;27.23;;;13.98;;
49440;SDS011;35317;51.978;6.296;2022-10-31T00:34:38;27.77;;;14.90;;
49440;SDS011;35317;51.978;6.296;2022-10-31T00:39:39;25.17;;;14.15;;
49440;SDS011;35317;51.978;6.296;2022-10-31T00:44:39;34.28;;;17.25;;
49440;SDS011;35317;51.978;6.296;2022-10-31T00:49:40;37.28;;;19.80;;
49440;SDS011;35317;51.978;6.296;2022-10-31T00:54:41;39.65;;;20.40;;
49440;SDS011;35317;51.978;6.296;2022-10-31T00:59:42;39.78;;;21.65;;
49440;SDS011;35317;51.978;6.296;2022-10-31T01:04:42;42.45;;;22.98;;
49440;SDS011;35317;51.978;6.296;2022-10-31T01:09:44;51.38;;;25.33;;
49440;SDS011;35317;51.978;6.296;2022-10-31T01:14:45;41.55;;;21.98;;
49440;SDS011;35317;51.978;6.296;2022-10-31T01:19:45;38.53;;;22.13;;
49440;SDS011;35317;51.978;6.296;2022-10-31T01:24:46;48.42;;;24.48;;
49440;SDS011;35317;51.978;6.296;2022-10-31T01:29:47;45.55;;;25.48;;
49440;SDS011;35317;51.978;6.296;2022-10-31T01:34:48;51.78;;;27.10;;
49440;SDS011;35317;51.978;6.296;2022-10-31T01:39:48;49.35;;;26.90;;
49440;SDS011;35317;51.978;6.296;2022-10-31T01:44:50;45.67;;;24.35;;
49440;SDS011;35317;51.978;6.296;2022-10-31T01:49:56;46.05;;;27.27;;
49440;SDS011;35317;51.978;6.296;2022-10-31T01:55:02;48.72;;;27.48;;
49440;SDS011;35317;51.978;6.296;2022-10-31T02:00:08;52.08;;;28.05;;
49440;SDS011;35317;51.978;6.296;2022-10-31T02:05:12;70.43;;;32.77;;
49440;SDS011;35317;51.978;6.296;2022-10-31T02:10:18;67.28;;;32.05;;
49440;SDS011;35317;51.978;6.296;2022-10-31T02:15:21;51.75;;;25.83;;
49440;SDS011;35317;51.978;6.296;2022-10-31T02:20:23;44.15;;;23.20;;
49440;SDS011;35317;51.978;6.296;2022-10-31T02:30:58;49.33;;;25.48;;
49440;SDS011;35317;51.978;6.296;2022-10-31T02:47:12;48.40;;;25.52;;
49440;SDS011;35317;51.978;6.296;2022-10-31T02:52:37;48.15;;;25.10;;
49440;SDS011;35317;51.978;6.296;2022-10-31T02:57:39;41.13;;;24.08;;
49440;SDS011;35317;51.978;6.296;2022-10-31T03:08:08;57.53;;;28.98;;
49440;SDS011;35317;51.978;6.296;2022-10-31T03:18:32;52.78;;;28.60;;
49440;SDS011;35317;51.978;6.296;2022-10-31T03:23:40;50.28;;;27.30;;
49440;SDS011;35317;51.978;6.296;2022-10-31T03:28:45;49.92;;;27.67;;
49440;SDS011;35317;51.978;6.296;2022-10-31T03:33:52;46.17;;;25.27;;
49440;SDS011;35317;51.978;6.296;2022-10-31T03:43:59;55.25;;;28.92;;
49440;SDS011;35317;51.978;6.296;2022-10-31T03:49:08;54.80;;;28.60;;
49440;SDS011;35317;51.978;6.296;2022-10-31T03:54:22;59.65;;;28.08;;
49440;SDS011;35317;51.978;6.296;2022-10-31T03:59:32;60.97;;;31.70;;
49440;SDS011;35317;51.978;6.296;2022-10-31T04:04:36;58.55;;;29.67;;
49440;SDS011;35317;51.978;6.296;2022-10-31T04:09:39;58.90;;;29.83;;
49440;SDS011;35317;51.978;6.296;2022-10-31T04:14:45;78.47;;;34.45;;
49440;SDS011;35317;51.978;6.296;2022-10-31T04:19:48;73.47;;;34.88;;
49440;SDS011;35317;51.978;6.296;2022-10-31T04:24:48;62.00;;;32.92;;
49440;SDS011;35317;51.978;6.296;2022-10-31T04:29:49;80.38;;;36.65;;
49440;SDS011;35317;51.978;6.296;2022-10-31T04:34:50;79.18;;;38.40;;
49440;SDS011;35317;51.978;6.296;2022-10-31T04:39:50;88.13;;;37.55;;
49440;SDS011;35317;51.978;6.296;2022-10-31T04:44:51;88.53;;;38.65;;
49440;SDS011;35317;51.978;6.296;2022-10-31T04:49:52;79.60;;;37.10;;
49440;SDS011;35317;51.978;6.296;2022-10-31T04:54:53;66.47;;;32.47;;
49440;SDS011;35317;51.978;6.296;2022-10-31T04:59:53;69.43;;;32.45;;
49440;SDS011;35317;51.978;6.296;2022-10-31T05:04:54;101.80;;;40.95;;
49440;SDS011;35317;51.978;6.296;2022-10-31T05:09:55;88.38;;;38.25;;
49440;SDS011;35317;51.978;6.296;2022-10-31T05:14:55;80.72;;;35.55;;
49440;SDS011;35317;51.978;6.296;2022-10-31T05:19:56;65.68;;;33.13;;
49440;SDS011;35317;51.978;6.296;2022-10-31T05:24:57;63.42;;;29.80;;
49440;SDS011;35317;51.978;6.296;2022-10-31T05:29:58;68.85;;;29.23;;
49440;SDS011;35317;51.978;6.296;2022-10-31T05:34:58;51.17;;;26.67;;
49440;SDS011;35317;51.978;6.296;2022-10-31T05:39:59;42.97;;;25.35;;
49440;SDS011;35317;51.978;6.296;2022-10-31T05:45:00;47.42;;;25.80;;
49440;SDS011;35317;51.978;6.296;2022-10-31T05:50:01;52.78;;;26.80;;
49440;SDS011;35317;51.978;6.296;2022-10-31T05:55:03;53.88;;;27.40;;
49440;SDS011;35317;51.978;6.296;2022-10-31T06:00:04;81.57;;;34.03;;
49440;SDS011;35317;51.978;6.296;2022-10-31T06:05:06;68.35;;;31.48;;
49440;SDS011;35317;51.978;6.296;2022-10-31T06:10:08;61.97;;;31.20;;
49440;SDS011;35317;51.978;6.296;2022-10-31T06:15:09;76.68;;;33.05;;
49440;SDS011;35317;51.978;6.296;2022-10-31T06:20:10;80.18;;;36.58;;
49440;SDS011;35317;51.978;6.296;2022-10-31T06:25:11;76.10;;;33.60;;
49440;SDS011;35317;51.978;6.296;2022-10-31T06:30:12;88.80;;;37.47;;
49440;SDS011;35317;51.978;6.296;2022-10-31T06:35:13;93.97;;;42.80;;
49440;SDS011;35317;51.978;6.296;2022-10-31T06:40:14;102.93;;;41.58;;
49440;SDS011;35317;51.978;6.296;2022-10-31T06:45:14;84.10;;;37.33;;
49440;SDS011;35317;51.978;6.296;2022-10-31T06:50:15;70.00;;;34.08;;
49440;SDS011;35317;51.978;6.296;2022-10-31T06:55:16;74.72;;;35.85;;
49440;SDS011;35317;51.978;6.296;2022-10-31T07:00:17;80.60;;;34.85;;
49440;SDS011;35317;51.978;6.296;2022-10-31T07:05:18;79.75;;;36.08;;
49440;SDS011;35317;51.978;6.296;2022-10-31T07:10:19;89.18;;;39.22;;
49440;SDS011;35317;51.978;6.296;2022-10-31T07:15:19;76.88;;;37.63;;
49440;SDS011;35317;51.978;6.296;2022-10-31T08:33:44;182.23;;;72.68;;
49440;SDS011;35317;51.978;6.296;2022-10-31T08:38:46;207.65;;;80.22;;
49440;SDS011;35317;51.978;6.296;2022-10-31T08:43:47;162.07;;;71.72;;
49440;SDS011;35317;51.978;6.296;2022-10-31T08:48:48;182.07;;;80.00;;
49440;SDS011;35317;51.978;6.296;2022-10-31T08:53:49;184.15;;;78.70;;
49440;SDS011;35317;51.978;6.296;2022-10-31T08:58:50;164.70;;;76.75;;
49440;SDS011;35317;51.978;6.296;2022-10-31T09:03:53;169.63;;;72.53;;
49440;SDS011;35317;51.978;6.296;2022-10-31T09:08:53;156.68;;;69.75;;
49440;SDS011;35317;51.978;6.296;2022-10-31T09:13:54;117.72;;;57.47;;
49440;SDS011;35317;51.978;6.296;2022-10-31T09:18:55;103.88;;;48.88;;
49440;SDS011;35317;51.978;6.296;2022-10-31T09:23:55;81.25;;;39.92;;
49440;SDS011;35317;51.978;6.296;2022-10-31T09:28:56;68.97;;;34.13;;
49440;SDS011;35317;51.978;6.296;2022-10-31T09:33:58;49.78;;;28.48;;
49440;SDS011;35317;51.978;6.296;2022-10-31T09:38:59;39.13;;;23.48;;
49440;SDS011;35317;51.978;6.296;2022-10-31T09:44:13;38.33;;;23.05;;
49440;SDS011;35317;51.978;6.296;2022-10-31T10:00:45;38.92;;;21.95;;
49440;SDS011;35317;51.978;6.296;2022-10-31T10:16:32;36.40;;;20.33;;
49440;SDS011;35317;51.978;6.296;2022-10-31T10:37:57;43.53;;;22.80;;
49440;SDS011;35317;51.978;6.296;2022-10-31T10:48:42;37.97;;;21.85;;
49440;SDS011;35317;51.978;6.296;2022-10-31T10:54:03;38.30;;;22.13;;
49440;SDS011;35317;51.978;6.296;2022-10-31T10:59:44;42.40;;;22.52;;
49440;SDS011;35317;51.978;6.296;2022-10-31T11:04:50;37.17;;;21.85;;
49440;SDS011;35317;51.978;6.296;2022-10-31T11:10:03;42.85;;;22.50;;
49440;SDS011;35317;51.978;6.296;2022-10-31T11:15:21;34.58;;;20.55;;
49440;SDS011;35317;51.978;6.296;2022-10-31T11:20:29;35.17;;;20.35;;
49440;SDS011;35317;51.978;6.296;2022-10-31T11:25:36;35.63;;;20.38;;
49440;SDS011;35317;51.978;6.296;2022-10-31T11:30:43;33.75;;;20.48;;
49440;SDS011;35317;51.978;6.296;2022-10-31T11:35:48;36.90;;;19.73;;
49440;SDS011;35317;51.978;6.296;2022-10-31T11:40:53;37.55;;;18.40;;
49440;SDS011;35317;51.978;6.296;2022-10-31T11:45:58;36.33;;;20.00;;
49440;SDS011;35317;51.978;6.296;2022-10-31T11:50:59;35.90;;;19.98;;
49440;SDS011;35317;51.978;6.296;2022-10-31T11:56:04;37.75;;;20.98;;
49440;SDS011;35317;51.978;6.296;2022-10-31T12:01:23;34.60;;;21.95;;
49440;SDS011;35317;51.978;6.296;2022-10-31T12:06:28;38.25;;;20.30;;
49440;SDS011;35317;51.978;6.296;2022-10-31T12:11:43;40.15;;;21.05;;
49440;SDS011;35317;51.978;6.296;2022-10-31T12:22:22;47.35;;;20.70;;
49440;SDS011;35317;51.978;6.296;2022-10-31T12:27:53;40.08;;;21.30;;
49440;SDS011;35317;51.978;6.296;2022-10-31T12:33:40;43.30;;;21.25;;
49440;SDS011;35317;51.978;6.296;2022-10-31T13:01:45;33.85;;;18.70;;
49440;SDS011;35317;51.978;6.296;2022-10-31T13:06:58;38.03;;;19.27;;
49440;SDS011;35317;51.978;6.296;2022-10-31T13:12:07;36.08;;;19.73;;
49440;SDS011;35317;51.978;6.296;2022-10-31T13:17:22;39.05;;;19.10;;
49440;SDS011;35317;51.978;6.296;2022-10-31T13:22:39;38.97;;;20.08;;
49440;SDS011;35317;51.978;6.296;2022-10-31T13:27:58;36.50;;;19.88;;
49440;SDS011;35317;51.978;6.296;2022-10-31T13:33:19;38.85;;;21.98;;
49440;SDS011;35317;51.978;6.296;2022-10-31T13:38:39;35.72;;;19.55;;
49440;SDS011;35317;51.978;6.296;2022-10-31T13:44:34;41.03;;;22.52;;
49440;SDS011;35317;51.978;6.296;2022-10-31T13:54:32;45.42;;;23.40;;
49440;SDS011;35317;51.978;6.296;2022-10-31T13:59:37;51.78;;;24.95;;
49440;SDS011;35317;51.978;6.296;2022-10-31T14:04:43;48.13;;;25.27;;
49440;SDS011;35317;51.978;6.296;2022-10-31T14:09:53;49.65;;;26.77;;
49440;SDS011;35317;51.978;6.296;2022-10-31T14:15:05;52.00;;;24.98;;
49440;SDS011;35317;51.978;6.296;2022-10-31T14:25:34;52.17;;;27.48;;
49440;SDS011;35317;51.978;6.296;2022-10-31T14:30:36;49.17;;;25.40;;
49440;SDS011;35317;51.978;6.296;2022-10-31T14:35:49;49.75;;;25.60;;
49440;SDS011;35317;51.978;6.296;2022-10-31T14:41:25;45.13;;;23.92;;
49440;SDS011;35317;51.978;6.296;2022-10-31T14:47:05;51.58;;;25.27;;
49440;SDS011;35317;51.978;6.296;2022-10-31T14:52:37;43.38;;;25.15;;
49440;SDS011;35317;51.978;6.296;2022-10-31T14:57:39;42.65;;;24.58;;
49440;SDS011;35317;51.978;6.296;2022-10-31T15:03:06;43.72;;;25.33;;
49440;SDS011;35317;51.978;6.296;2022-10-31T15:13:48;47.33;;;23.85;;
49440;SDS011;35317;51.978;6.296;2022-10-31T15:18:54;42.63;;;22.90;;
49440;SDS011;35317;51.978;6.296;2022-10-31T15:24:00;42.08;;;22.92;;
49440;SDS011;35317;51.978;6.296;2022-10-31T15:29:03;43.28;;;23.67;;
49440;SDS011;35317;51.978;6.296;2022-10-31T15:34:14;44.17;;;23.38;;
49440;SDS011;35317;51.978;6.296;2022-10-31T15:39:22;47.47;;;23.30;;
49440;SDS011;35317;51.978;6.296;2022-10-31T15:44:24;55.28;;;25.13;;
49440;SDS011;35317;51.978;6.296;2022-10-31T15:49:36;42.30;;;23.77;;
49440;SDS011;35317;51.978;6.296;2022-10-31T15:54:48;48.13;;;23.73;;
49440;SDS011;35317;51.978;6.296;2022-10-31T15:59:54;44.72;;;23.50;;
49440;SDS011;35317;51.978;6.296;2022-10-31T16:04:57;44.97;;;23.88;;
49440;SDS011;35317;51.978;6.296;2022-10-31T16:10:02;48.08;;;25.27;;
49440;SDS011;35317;51.978;6.296;2022-10-31T16:15:04;44.42;;;24.13;;
49440;SDS011;35317;51.978;6.296;2022-10-31T16:20:19;46.40;;;24.02;;
49440;SDS011;35317;51.978;6.296;2022-10-31T16:30:38;51.88;;;25.50;;
49440;SDS011;35317;51.978;6.296;2022-10-31T16:35:44;46.55;;;24.23;;
49440;SDS011;35317;51.978;6.296;2022-10-31T16:40:44;56.45;;;24.95;;
49440;SDS011;35317;51.978;6.296;2022-10-31T16:45:46;44.33;;;24.55;;
49440;SDS011;35317;51.978;6.296;2022-10-31T16:50:51;49.70;;;25.98;;
49440;SDS011;35317;51.978;6.296;2022-10-31T16:55:57;52.17;;;24.63;;
49440;SDS011;35317;51.978;6.296;2022-10-31T17:01:03;47.70;;;23.38;;
49440;SDS011;35317;51.978;6.296;2022-10-31T17:06:08;49.67;;;25.70;;
49440;SDS011;35317;51.978;6.296;2022-10-31T17:11:20;49.15;;;24.85;;
49440;SDS011;35317;51.978;6.296;2022-10-31T17:16:24;50.83;;;24.73;;
49440;SDS011;35317;51.978;6.296;2022-10-31T17:21:25;57.30;;;23.45;;
49440;SDS011;35317;51.978;6.296;2022-10-31T17:26:27;44.08;;;24.30;;
49440;SDS011;35317;51.978;6.296;2022-10-31T17:31:28;41.80;;;22.55;;
49440;SDS011;35317;51.978;6.296;2022-10-31T17:36:32;45.70;;;23.08;;
49440;SDS011;35317;51.978;6.296;2022-10-31T17:41:34;43.17;;;21.90;;
49440;SDS011;35317;51.978;6.296;2022-10-31T17:46:35;42.05;;;21.30;;
49440;SDS011;35317;51.978;6.296;2022-10-31T17:51:36;46.55;;;21.08;;
49440;SDS011;35317;51.978;6.296;2022-10-31T17:56:37;43.30;;;22.13;;
49440;SDS011;35317;51.978;6.296;2022-10-31T18:01:38;45.53;;;20.58;;
49440;SDS011;35317;51.978;6.296;2022-10-31T18:06:39;44.97;;;21.08;;
49440;SDS011;35317;51.978;6.296;2022-10-31T18:11:39;40.00;;;20.67;;
49440;SDS011;35317;51.978;6.296;2022-10-31T18:16:40;41.60;;;21.70;;
49440;SDS011;35317;51.978;6.296;2022-10-31T18:21:41;43.15;;;21.55;;
49440;SDS011;35317;51.978;6.296;2022-10-31T18:26:44;45.08;;;21.58;;
49440;SDS011;35317;51.978;6.296;2022-10-31T18:31:44;41.22;;;20.65;;
49440;SDS011;35317;51.978;6.296;2022-10-31T18:36:50;35.45;;;19.33;;
49440;SDS011;35317;51.978;6.296;2022-10-31T18:41:51;33.78;;;19.70;;
49440;SDS011;35317;51.978;6.296;2022-10-31T18:46:53;41.55;;;20.77;;
49440;SDS011;35317;51.978;6.296;2022-10-31T18:51:54;41.90;;;19.00;;
49440;SDS011;35317;51.978;6.296;2022-10-31T18:56:55;41.33;;;20.35;;
49440;SDS011;35317;51.978;6.296;2022-10-31T19:01:56;48.13;;;20.02;;
49440;SDS011;35317;51.978;6.296;2022-10-31T19:06:56;37.70;;;17.90;;
49440;SDS011;35317;51.978;6.296;2022-10-31T19:11:57;43.45;;;18.73;;
49440;SDS011;35317;51.978;6.296;2022-10-31T19:16:58;40.42;;;18.25;;
49440;SDS011;35317;51.978;6.296;2022-10-31T19:21:59;38.90;;;19.52;;
49440;SDS011;35317;51.978;6.296;2022-10-31T19:27:00;34.67;;;18.30;;
49440;SDS011;35317;51.978;6.296;2022-10-31T19:32:02;37.22;;;18.63;;
49440;SDS011;35317;51.978;6.296;2022-10-31T19:37:03;39.70;;;17.98;;
49440;SDS011;35317;51.978;6.296;2022-10-31T19:42:04;38.10;;;17.90;;
49440;SDS011;35317;51.978;6.296;2022-10-31T19:47:05;40.15;;;18.73;;
49440;SDS011;35317;51.978;6.296;2022-10-31T19:52:06;38.30;;;18.33;;
49440;SDS011;35317;51.978;6.296;2022-10-31T19:57:06;43.60;;;17.90;;
49440;SDS011;35317;51.978;6.296;2022-10-31T20:02:09;33.97;;;17.45;;
49440;SDS011;35317;51.978;6.296;2022-10-31T20:07:18;33.92;;;16.58;;
49440;SDS011;35317;51.978;6.296;2022-10-31T20:12:19;29.85;;;15.70;;
49440;SDS011;35317;51.978;6.296;2022-10-31T20:17:19;28.02;;;17.08;;
49440;SDS011;35317;51.978;6.296;2022-10-31T20:22:20;34.38;;;17.05;;
49440;SDS011;35317;51.978;6.296;2022-10-31T20:27:21;33.13;;;16.17;;
49440;SDS011;35317;51.978;6.296;2022-10-31T20:32:22;35.22;;;16.17;;
49440;SDS011;35317;51.978;6.296;2022-10-31T20:37:23;32.05;;;13.85;;
49440;SDS011;35317;51.978;6.296;2022-10-31T20:42:24;33.47;;;13.80;;
49440;SDS011;35317;51.978;6.296;2022-10-31T20:47:25;25.52;;;12.30;;
49440;SDS011;35317;51.978;6.296;2022-10-31T20:52:26;29.70;;;12.35;;
49440;SDS011;35317;51.978;6.296;2022-10-31T20:57:27;21.92;;;11.23;;
49440;SDS011;35317;51.978;6.296;2022-10-31T21:02:27;23.23;;;10.80;;
49440;SDS011;35317;51.978;6.296;2022-10-31T21:07:29;22.58;;;10.27;;
49440;SDS011;35317;51.978;6.296;2022-10-31T21:12:30;25.75;;;9.82;;
49440;SDS011;35317;51.978;6.296;2022-10-31T21:17:31;18.92;;;9.57;;
49440;SDS011;35317;51.978;6.296;2022-10-31T21:22:32;19.42;;;9.63;;
49440;SDS011;35317;51.978;6.296;2022-10-31T21:27:33;16.83;;;8.60;;
49440;SDS011;35317;51.978;6.296;2022-10-31T21:32:34;20.17;;;8.10;;
49440;SDS011;35317;51.978;6.296;2022-10-31T21:37:35;20.90;;;7.97;;
49440;SDS011;35317;51.978;6.296;2022-10-31T21:42:36;14.18;;;6.78;;
49440;SDS011;35317;51.978;6.296;2022-10-31T21:47:36;20.17;;;6.90;;
49440;SDS011;35317;51.978;6.296;2022-10-31T21:52:37;12.93;;;6.15;;
49440;SDS011;35317;51.978;6.296;2022-10-31T21:57:38;13.85;;;6.15;;
49440;SDS011;35317;51.978;6.296;2022-10-31T22:02:39;14.40;;;5.57;;
49440;SDS011;35317;51.978;6.296;2022-10-31T22:07:40;18.30;;;5.90;;
49440;SDS011;35317;51.978;6.296;2022-10-31T22:12:40;17.83;;;6.15;;
49440;SDS011;35317;51.978;6.296;2022-10-31T22:17:41;13.40;;;5.20;;
49440;SDS011;35317;51.978;6.296;2022-10-31T22:22:42;14.88;;;5.30;;
49440;SDS011;35317;51.978;6.296;2022-10-31T22:27:43;10.48;;;5.18;;
49440;SDS011;35317;51.978;6.296;2022-10-31T22:32:43;14.02;;;5.47;;
49440;SDS011;35317;51.978;6.296;2022-10-31T22:37:44;15.25;;;5.82;;
49440;SDS011;35317;51.978;6.296;2022-10-31T22:42:45;11.10;;;5.55;;
49440;SDS011;35317;51.978;6.296;2022-10-31T22:47:46;14.02;;;5.90;;
49440;SDS011;35317;51.978;6.296;2022-10-31T22:52:46;18.27;;;6.68;;
49440;SDS011;35317;51.978;6.296;2022-10-31T22:57:47;13.32;;;5.68;;
49440;SDS011;35317;51.978;6.296;2022-10-31T23:02:48;17.58;;;5.88;;
49440;SDS011;35317;51.978;6.296;2022-10-31T23:07:49;13.77;;;5.68;;
49440;SDS011;35317;51.978;6.296;2022-10-31T23:12:50;14.35;;;5.43;;
49440;SDS011;35317;51.978;6.296;2022-10-31T23:18:10;15.40;;;5.70;;
49440;SDS011;35317;51.978;6.296;2022-10-31T23:23:11;15.77;;;5.70;;
49440;SDS011;35317;51.978;6.296;2022-10-31T23:28:11;14.25;;;6.93;;
49440;SDS011;35317;51.978;6.296;2022-10-31T23:33:12;13.93;;;6.20;;
49440;SDS011;35317;51.978;6.296;2022-10-31T23:38:13;15.40;;;6.97;;
49440;SDS011;35317;51.978;6.296;2022-10-31T23:43:14;11.80;;;6.10;;
49440;SDS011;35317;51.978;6.296;2022-10-31T23:48:14;13.88;;;6.30;;
49440;SDS011;35317;51.978;6.296;2022-10-31T23:53:15;16.80;;;6.00;;
49440;SDS011;35317;51.978;6.296;2022-10-31T23:58:16;15.30;;;6.25;;
